Takamatsu Airport, Japan

12:32 PM JST on August 01, 2014 (GMT +0900)
Takamatsu (RJOT) Elev 617 ft | 34.21 °N, 134.02 °E | Change Station

Current weather conditions updated 32 minutes ago

Mostly Cloudy
Mostly Cloudy
86 °F
Feels Like 92 °F
N
10
Wind Variable Wind from ENE

Today is forecast to be Cooler than yesterday. Thunderstorms developing late tonight.

Today
High -- | Low -- °F
--% Chance of Precip.
Yesterday
High -- | Low -- °F
Precip. -- in
5:14 AM 7:05 PM
Waxing Crescent, 23% visible
Pressure 29.83 in
Visibility 6.2 miles
Clouds Few 2000 ft
Scattered Clouds 15000 ft
Mostly Cloudy 18000 ft
Heat Index 92 °F
Dew Point 72 °F
Humidity 62%
Rainfall 0.00 in
Snow Depth Not available.
UV 7 out of 12
Pollen Not available.
Air Quality Not available.
Flu Activity Not available.
METAR RJOT 010300Z 07009KT 9999 FEW020 SCT150 BKN180 30/22 Q1010

More Conditions Fewer Conditions

Pressure 29.83 in
Visibility 6.2 miles
Clouds Few 2000 ft
Scattered Clouds 15000 ft
Mostly Cloudy 18000 ft
Heat Index 92 °F
Dew Point 72 °F
Humidity 62%
Rainfall 0.00 in
Snow Depth Not available.
UV 7 out of 12
Pollen Not available.
Air Quality Not available.
Flu Activity Not available.
METAR RJOT 010300Z 07009KT 9999 FEW020 SCT150 BKN180 30/22 Q1010

More Conditions Fewer Conditions

10-Day Weather Forecast

Almanac

Astronomy

Aug. 01, 2014 Rise Set
Actual Time 5:14 AM JST 7:05 PM JST
Civil Twilight 4:46 AM JST 7:33 PM JST
Nautical Twilight 4:13 AM JST 8:06 PM JST
Astronomical Twilight 3:38 AM JST 8:41 PM JST
Moon 9:48 AM JST 9:46 PM JST
Length of Visible Light 14h 46m
Length of Day
13h 51m
Tomorrow will be 1m 36s shorter.
Waxing Crescent, 23% of the Moon is Illuminated
Jul 31
Waxing Crescent
Aug 3
First Quarter
Aug 10
Full
Aug 17
Last Quarter
Aug 25
New

Yesterday's Extremes

Country Highs Country Lows

Community

WunderPhotos

Upload Photos

1,739,503 photos uploaded!

Nearby

Snow Depth

Not available.

Earthquake Activity

City Distance Mag. Time & Date
No recent earthquake activity has been reported nearby.
Minimum magnitude displayed is 2.5.

Coastal Water Temperatures

Place Temperature
No Stations Reporting

Nearby Weather Stations

There are no personal weather stations in this area.